Time;durP1;ratioP1;P1;durP2;ratioP2;P2;SDS_P1;SDS_P2;PMS_P1;PMS_P2;Temp;Humidity;BMP_temperature;BMP_pressure;BME280_temperature;BME280_humidity;BME280_pressure;Samples;Min_cycle;Max_cycle;Signal;HPM_P1;HPM_P2
2024/02/17 00:00:56;;;;;;;7.60;7.10;;;13.70;1.00;;;;;;5020920;28;20970;-81
2024/02/17 00:03:26;;;;;;;8.03;7.50;;;13.70;1.00;;;;;;5020829;28;20441;-82
2024/02/17 00:05:54;;;;;;;7.47;7.07;;;13.70;99.90;;;;;;5022426;28;20453;-81
2024/02/17 00:08:25;;;;;;;7.80;7.23;;;13.70;1.00;;;;;;5021079;28;20878;-82
2024/02/17 00:10:54;;;;;;;8.23;7.70;;;13.80;99.90;;;;;;5017629;28;20445;-81
2024/02/17 00:13:23;;;;;;;7.57;7.13;;;13.70;99.90;;;;;;5018657;28;20461;-80
2024/02/17 00:15:51;;;;;;;7.87;7.47;;;13.80;33.10;;;;;;5017360;28;20461;-80
2024/02/17 00:18:23;;;;;;;8.50;7.87;;;13.70;3.20;;;;;;5020010;28;20450;-80
2024/02/17 00:20:52;;;;;;;7.80;7.33;;;13.70;1.00;;;;;;5024154;28;20626;-81
2024/02/17 00:23:21;;;;;;;7.50;7.10;;;13.70;99.90;;;;;;5021024;28;20880;-81
2024/02/17 00:25:50;;;;;;;7.07;6.67;;;13.70;99.90;;;;;;5037278;28;21001;-85
2024/02/17 00:28:21;;;;;;;7.27;6.87;;;13.70;99.90;;;;;;5021369;28;21042;-83
2024/02/17 00:30:49;;;;;;;7.07;6.77;;;13.70;1.00;;;;;;5019445;28;20700;-83
2024/02/17 00:33:18;;;;;;;7.10;6.70;;;13.80;99.90;;;;;;5024554;28;20515;-83
2024/02/17 00:35:46;;;;;;;8.10;7.60;;;13.70;99.90;;;;;;5023411;28;20469;-84
2024/02/17 00:38:16;;;;;;;6.93;6.53;;;13.70;1.00;;;;;;5025362;28;20454;-84
2024/02/17 00:40:46;;;;;;;6.53;6.30;;;13.60;99.90;;;;;;5020993;28;21001;-85
2024/02/17 00:43:15;;;;;;;8.03;7.03;;;13.60;1.00;;;;;;5025429;28;20501;-82
2024/02/17 00:45:48;;;;;;;7.10;6.73;;;13.60;1.00;;;;;;5027889;28;20543;-82
2024/02/17 00:48:17;;;;;;;8.17;7.67;;;13.60;1.00;;;;;;5020558;28;20488;-82
2024/02/17 00:50:46;;;;;;;7.40;7.00;;;13.60;99.90;;;;;;5021001;28;20509;-82
2024/02/17 00:53:26;;;;;;;7.37;6.97;;;13.60;99.90;;;;;;5019919;28;20481;-85
2024/02/17 00:55:56;;;;;;;7.63;7.23;;;13.60;82.50;;;;;;5023388;28;20511;-84
2024/02/17 00:58:24;;;;;;;7.30;6.80;;;13.60;1.00;;;;;;5021037;28;20560;-84
2024/02/17 01:00:54;;;;;;;7.67;7.17;;;13.60;99.90;;;;;;5022805;28;20465;-84
2024/02/17 01:03:22;;;;;;;7.47;7.07;;;13.60;99.90;;;;;;5025855;28;21269;-83
2024/02/17 01:05:51;;;;;;;7.40;7.00;;;13.60;5.90;;;;;;5026125;28;20448;-84
2024/02/17 01:08:19;;;;;;;7.27;6.87;;;13.60;99.90;;;;;;5024128;28;20580;-85
2024/02/17 01:10:50;;;;;;;7.00;6.70;;;13.60;1.00;;;;;;5023986;28;20541;-84
2024/02/17 01:13:19;;;;;;;8.13;7.60;;;13.60;99.90;;;;;;5024922;28;21026;-84
2024/02/17 01:15:47;;;;;;;7.30;6.60;;;13.60;1.00;;;;;;5027032;28;20441;-84
2024/02/17 01:18:15;;;;;;;8.27;7.80;;;13.60;1.00;;;;;;5025629;28;20476;-85
2024/02/17 01:20:44;;;;;;;7.17;6.87;;;13.50;99.90;;;;;;5014861;28;20489;-87
2024/02/17 01:23:12;;;;;;;8.20;7.60;;;13.50;99.90;;;;;;5025566;28;20452;-85
2024/02/17 01:25:40;;;;;;;7.40;7.10;;;13.50;99.90;;;;;;5023824;28;20449;-84
2024/02/17 01:28:10;;;;;;;7.63;7.23;;;13.50;1.00;;;;;;5025108;28;20998;-85
2024/02/17 01:30:38;;;;;;;7.63;7.33;;;13.50;1.00;;;;;;5008011;28;20488;-86
2024/02/17 01:33:07;;;;;;;7.60;7.20;;;13.50;1.00;;;;;;5025584;28;20493;-84
2024/02/17 01:35:35;;;;;;;8.00;7.50;;;13.50;1.00;;;;;;5024407;28;20982;-85
2024/02/17 01:38:07;;;;;;;7.60;7.30;;;13.50;99.90;;;;;;5026821;28;21010;-84
2024/02/17 01:40:35;;;;;;;8.20;7.50;;;13.50;99.90;;;;;;5027758;28;20477;-85
2024/02/17 01:43:05;;;;;;;7.80;7.23;;;13.50;99.90;;;;;;5024988;28;21340;-84
2024/02/17 01:45:35;;;;;;;7.83;7.33;;;13.50;99.90;;;;;;5013360;28;20487;-84
2024/02/17 01:48:04;;;;;;;7.10;6.70;;;13.50;99.90;;;;;;5037837;28;20531;-85
2024/02/17 01:50:33;;;;;;;7.83;7.53;;;13.40;99.90;;;;;;5024929;28;21283;-85
2024/02/17 01:53:02;;;;;;;7.67;7.33;;;13.40;1.00;;;;;;5025460;28;20490;-85
2024/02/17 01:55:30;;;;;;;7.63;7.33;;;13.40;94.10;;;;;;5025099;28;20540;-83
2024/02/17 01:57:59;;;;;;;7.73;7.40;;;13.50;99.90;;;;;;5021220;28;20446;-85
2024/02/17 02:00:28;;;;;;;8.27;7.87;;;13.40;99.90;;;;;;5021775;28;20570;-83
2024/02/17 02:02:59;;;;;;;7.80;7.30;;;13.40;1.00;;;;;;5022256;28;20545;-83
2024/02/17 02:05:27;;;;;;;8.30;7.97;;;13.40;99.90;;;;;;5017733;28;20884;-83
2024/02/17 02:07:56;;;;;;;9.83;9.07;;;13.40;1.00;;;;;;5019771;28;20484;-85
2024/02/17 02:10:24;;;;;;;8.83;8.00;;;13.40;99.90;;;;;;5020364;28;20484;-85
2024/02/17 02:12:52;;;;;;;8.13;7.70;;;13.40;42.90;;;;;;5025042;28;20552;-83
2024/02/17 02:15:21;;;;;;;8.67;8.20;;;13.40;49.90;;;;;;5007248;28;20541;-85
2024/02/17 02:17:58;;;;;;;9.00;8.60;;;13.40;99.90;;;;;;5023040;28;20447;-85
2024/02/17 02:20:26;;;;;;;9.07;8.67;;;13.40;99.90;;;;;;5021448;28;20470;-85
2024/02/17 02:22:55;;;;;;;9.40;8.90;;;13.40;99.90;;;;;;5023350;28;20558;-85
2024/02/17 02:25:27;;;;;;;9.57;9.07;;;13.40;99.90;;;;;;5020961;28;20464;-84
2024/02/17 02:27:57;;;;;;;9.53;9.03;;;13.40;38.00;;;;;;5023045;28;20503;-85
2024/02/17 02:30:25;;;;;;;8.77;8.13;;;13.40;51.40;;;;;;5023001;28;22279;-85
2024/02/17 02:32:58;;;;;;;9.70;9.10;;;13.40;1.00;;;;;;5021924;28;20740;-86
2024/02/17 02:35:27;;;;;;;8.87;8.50;;;13.40;1.00;;;;;;5025303;28;21116;-85
2024/02/17 02:37:55;;;;;;;9.50;8.80;;;13.40;1.00;;;;;;5021522;28;20541;-85
2024/02/17 02:40:24;;;;;;;9.30;8.80;;;13.40;1.00;;;;;;5023612;28;20499;-84
2024/02/17 02:42:52;;;;;;;8.60;8.20;;;13.40;1.00;;;;;;5007272;28;20580;-86
2024/02/17 02:45:22;;;;;;;8.27;7.97;;;13.40;99.90;;;;;;5028527;28;20476;-85
2024/02/17 02:47:51;;;;;;;7.50;7.07;;;13.30;99.90;;;;;;5012548;28;20516;-84
2024/02/17 02:50:19;;;;;;;8.30;8.00;;;13.20;99.90;;;;;;5025026;28;20467;-83
2024/02/17 02:52:47;;;;;;;8.07;7.37;;;13.20;1.00;;;;;;5027691;28;20488;-83
2024/02/17 02:55:16;;;;;;;7.73;7.33;;;13.10;1.00;;;;;;5030099;28;20460;-83
2024/02/17 02:57:44;;;;;;;9.10;8.50;;;13.10;1.00;;;;;;5028707;28;20819;-83
2024/02/17 03:00:13;;;;;;;8.43;7.93;;;13.10;99.90;;;;;;5028121;28;20479;-83
2024/02/17 03:02:43;;;;;;;8.33;7.83;;;13.00;1.00;;;;;;5027849;28;20820;-83
2024/02/17 03:05:11;;;;;;;8.83;8.33;;;13.00;99.90;;;;;;5029473;28;20456;-84
2024/02/17 03:07:39;;;;;;;8.30;7.80;;;13.00;1.00;;;;;;5026806;28;20484;-84
2024/02/17 03:10:08;;;;;;;9.33;8.73;;;13.00;1.00;;;;;;5027956;28;20485;-84
2024/02/17 03:12:37;;;;;;;9.13;8.63;;;13.00;1.00;;;;;;5027170;28;20966;-82
2024/02/17 03:15:07;;;;;;;10.23;9.43;;;13.00;99.90;;;;;;5025658;28;20476;-83
2024/02/17 03:17:35;;;;;;;10.50;9.70;;;12.90;99.90;;;;;;5029255;28;21361;-83
2024/02/17 03:20:06;;;;;;;10.30;9.50;;;13.00;99.90;;;;;;5029497;28;20524;-85
2024/02/17 03:22:37;;;;;;;10.00;9.40;;;13.00;99.90;;;;;;5030131;28;20449;-84
2024/02/17 03:25:06;;;;;;;10.20;9.50;;;12.90;99.90;;;;;;5026850;28;20883;-84
2024/02/17 03:27:34;;;;;;;10.57;9.70;;;12.90;21.90;;;;;;5029607;28;21033;-82
2024/02/17 03:30:05;;;;;;;10.90;10.10;;;12.90;32.00;;;;;;5028013;28;20472;-85
2024/02/17 03:32:33;;;;;;;11.20;10.30;;;12.80;1.00;;;;;;5030550;28;20468;-86
2024/02/17 03:35:03;;;;;;;9.93;9.13;;;12.80;99.90;;;;;;5026800;28;20462;-85
2024/02/17 03:37:33;;;;;;;11.07;10.27;;;12.80;99.90;;;;;;5029005;28;20461;-84
2024/02/17 03:40:06;;;;;;;11.20;10.40;;;12.80;99.90;;;;;;5028854;28;20485;-85
2024/02/17 03:42:34;;;;;;;11.13;10.33;;;12.80;99.90;;;;;;5024732;28;20457;-84
2024/02/17 03:45:03;;;;;;;10.33;9.53;;;12.80;80.20;;;;;;5023179;28;20481;-85
2024/02/17 03:47:31;;;;;;;12.07;10.90;;;12.80;99.90;;;;;;5025458;28;20467;-84
2024/02/17 03:50:00;;;;;;;10.73;9.90;;;12.80;99.90;;;;;;5025254;28;20469;-85
2024/02/17 03:52:28;;;;;;;11.30;10.30;;;12.80;54.80;;;;;;5024178;28;20570;-83
2024/02/17 03:54:58;;;;;;;11.43;10.30;;;12.70;1.00;;;;;;5023413;28;20966;-83
2024/02/17 03:57:26;;;;;;;11.97;11.00;;;12.70;99.90;;;;;;5022371;28;20487;-82
2024/02/17 03:59:54;;;;;;;10.47;9.80;;;12.70;99.90;;;;;;5024059;28;20987;-84
2024/02/17 04:02:23;;;;;;;11.37;10.50;;;12.70;99.90;;;;;;5004969;28;20465;-84
2024/02/17 04:04:51;;;;;;;10.80;10.00;;;12.70;1.00;;;;;;5020986;28;20452;-84
2024/02/17 04:07:19;;;;;;;10.33;9.53;;;12.60;22.30;;;;;;5021792;28;20461;-83
2024/02/17 04:09:48;;;;;;;10.83;10.13;;;12.70;99.90;;;;;;5004540;28;20480;-84
2024/02/17 04:12:18;;;;;;;11.17;10.40;;;12.70;99.90;;;;;;5022041;28;20996;-86
2024/02/17 04:14:46;;;;;;;10.70;9.87;;;12.60;1.00;;;;;;5027243;28;20487;-84
2024/02/17 04:17:14;;;;;;;10.53;9.83;;;12.60;1.00;;;;;;5027636;28;21001;-83
2024/02/17 04:19:43;;;;;;;11.03;10.23;;;12.60;99.90;;;;;;5027616;28;20449;-85
2024/02/17 04:22:11;;;;;;;12.00;11.07;;;12.60;1.00;;;;;;5023694;28;20447;-84
2024/02/17 04:24:39;;;;;;;10.87;10.00;;;12.60;1.00;;;;;;5007606;28;20662;-84
2024/02/17 04:27:09;;;;;;;10.43;9.63;;;12.60;1.00;;;;;;5024953;28;20449;-83
2024/02/17 04:29:39;;;;;;;11.80;10.80;;;12.60;1.00;;;;;;5035825;28;20503;-84
2024/02/17 04:32:08;;;;;;;11.17;10.07;;;12.60;1.00;;;;;;5026473;28;20464;-83
2024/02/17 04:34:36;;;;;;;14.20;11.07;;;12.50;1.00;;;;;;5025918;28;20441;-82
2024/02/17 04:37:05;;;;;;;10.73;9.83;;;12.50;1.00;;;;;;5024196;28;20528;-82
2024/02/17 04:39:34;;;;;;;10.63;9.60;;;12.50;1.00;;;;;;5022717;28;20606;-84
2024/02/17 04:42:03;;;;;;;11.37;9.70;;;12.50;1.00;;;;;;5022618;28;20452;-85
2024/02/17 04:44:31;;;;;;;10.97;9.83;;;12.50;99.90;;;;;;5023882;28;20469;-85
2024/02/17 04:47:01;;;;;;;10.30;9.40;;;12.50;99.90;;;;;;5023428;28;20551;-85
2024/02/17 04:49:29;;;;;;;16.17;9.27;;;12.50;99.90;;;;;;5023526;28;20995;-85
2024/02/17 04:51:57;;;;;;;12.10;9.60;;;12.50;99.90;;;;;;5025808;28;20464;-83
2024/02/17 04:54:25;;;;;;;9.57;8.77;;;12.50;80.00;;;;;;5029050;28;20457;-83
2024/02/17 04:56:54;;;;;;;12.83;10.03;;;12.50;99.90;;;;;;5024348;28;20456;-84
2024/02/17 04:59:22;;;;;;;10.33;9.43;;;12.50;99.90;;;;;;5025278;28;20479;-85
2024/02/17 05:01:51;;;;;;;9.57;8.80;;;12.50;99.90;;;;;;5020685;28;20826;-84
2024/02/17 05:04:24;;;;;;;8.97;8.17;;;12.40;99.90;;;;;;5024084;28;20475;-85
2024/02/17 05:06:52;;;;;;;9.13;8.33;;;12.40;99.90;;;;;;5027459;28;20446;-84
2024/02/17 05:09:20;;;;;;;9.87;8.97;;;12.50;27.20;;;;;;5019830;28;20492;-82
2024/02/17 05:11:49;;;;;;;10.10;9.23;;;12.40;1.00;;;;;;5022033;28;20484;-85
2024/02/17 05:14:18;;;;;;;8.70;8.20;;;12.40;1.00;;;;;;5009440;28;20477;-84
2024/02/17 05:16:46;;;;;;;10.50;9.70;;;12.40;1.00;;;;;;5021670;28;20457;-83
2024/02/17 05:19:15;;;;;;;9.57;8.87;;;12.40;1.00;;;;;;5019064;28;20473;-83
2024/02/17 05:21:45;;;;;;;10.33;9.47;;;12.40;1.00;;;;;;5023109;28;20457;-86
2024/02/17 05:24:14;;;;;;;11.00;10.10;;;12.40;1.00;;;;;;5020439;28;21259;-84
2024/02/17 05:26:42;;;;;;;11.37;10.37;;;12.40;35.10;;;;;;5020927;28;20457;-84
2024/02/17 05:29:10;;;;;;;10.03;9.10;;;12.40;1.00;;;;;;5019172;28;21029;-84
2024/02/17 05:31:38;;;;;;;11.37;10.47;;;12.30;99.90;;;;;;5004615;28;20991;-84
2024/02/17 05:34:07;;;;;;;10.93;9.93;;;12.40;99.90;;;;;;5024677;28;21037;-82
2024/02/17 05:36:35;;;;;;;10.87;9.87;;;12.30;99.90;;;;;;5013350;28;20464;-85
2024/02/17 05:39:05;;;;;;;9.83;8.93;;;12.30;99.90;;;;;;5025194;28;20464;-85
2024/02/17 05:41:34;;;;;;;10.23;9.43;;;12.30;99.90;;;;;;5029985;28;20446;-83
2024/02/17 05:44:03;;;;;;;12.13;11.20;;;12.40;99.90;;;;;;5030537;28;20524;-84
2024/02/17 05:46:31;;;;;;;10.97;10.03;;;12.40;99.90;;;;;;5026807;28;20489;-83
2024/02/17 05:48:59;;;;;;;10.97;10.03;;;12.30;99.90;;;;;;5026779;28;20465;-84
2024/02/17 05:51:28;;;;;;;12.17;10.97;;;12.30;99.90;;;;;;5027039;28;20483;-85
2024/02/17 05:53:56;;;;;;;12.43;11.43;;;12.40;99.90;;;;;;5026054;28;20484;-85
2024/02/17 05:56:26;;;;;;;12.10;10.90;;;12.40;99.90;;;;;;5027190;28;20489;-85
2024/02/17 05:58:55;;;;;;;12.53;11.33;;;12.40;99.90;;;;;;5028022;28;20500;-84
2024/02/17 06:01:25;;;;;;;12.57;11.47;;;12.30;99.90;;;;;;5029140;28;20498;-84
2024/02/17 06:03:53;;;;;;;11.83;10.80;;;12.40;99.90;;;;;;5009604;28;20469;-85
2024/02/17 06:06:22;;;;;;;11.83;10.83;;;12.30;99.90;;;;;;5029456;28;21026;-83
2024/02/17 06:08:50;;;;;;;12.50;11.30;;;12.30;99.90;;;;;;5024721;28;20466;-83
2024/02/17 06:11:18;;;;;;;12.20;11.03;;;12.20;99.90;;;;;;5018828;28;20486;-85
2024/02/17 06:13:48;;;;;;;13.67;11.13;;;12.30;99.90;;;;;;5019247;28;20460;-84
2024/02/17 06:16:18;;;;;;;11.93;10.80;;;12.20;99.90;;;;;;5014913;28;20548;-85
2024/02/17 06:21:28;;;;;;;13.03;11.70;;;12.20;1.00;;;;;;4995103;28;20469;-84
2024/02/17 06:23:57;;;;;;;12.80;11.50;;;12.20;1.00;;;;;;5001446;28;20488;-85
2024/02/17 06:26:27;;;;;;;13.93;12.63;;;12.20;1.00;;;;;;5022979;28;20472;-84
2024/02/17 06:28:59;;;;;;;12.80;11.57;;;12.20;1.00;;;;;;5017788;28;20491;-84
2024/02/17 06:31:27;;;;;;;13.07;11.77;;;12.20;1.00;;;;;;5018652;28;20484;-85
2024/02/17 06:33:56;;;;;;;13.50;11.67;;;12.20;1.00;;;;;;5006163;28;20494;-85
2024/02/17 06:36:24;;;;;;;12.63;10.97;;;12.10;1.00;;;;;;5008272;28;20573;-84
2024/02/17 06:38:52;;;;;;;13.00;11.70;;;12.10;1.00;;;;;;5019120;28;20473;-86
2024/02/17 06:41:21;;;;;;;14.37;13.00;;;12.10;1.00;;;;;;5022248;28;20461;-83
2024/02/17 06:43:50;;;;;;;13.53;11.97;;;12.10;1.00;;;;;;5023996;28;20457;-83
2024/02/17 06:46:20;;;;;;;14.27;12.20;;;12.10;99.90;;;;;;5025658;28;20455;-85
2024/02/17 06:48:50;;;;;;;13.53;11.70;;;12.10;99.90;;;;;;5022063;28;20841;-83
2024/02/17 06:51:20;;;;;;;12.27;11.07;;;12.00;99.90;;;;;;5020575;28;20484;-84
2024/02/17 06:53:49;;;;;;;13.87;12.53;;;12.00;1.00;;;;;;5001356;28;20465;-84
2024/02/17 06:56:18;;;;;;;13.60;12.20;;;12.00;1.00;;;;;;5016135;28;20449;-85
2024/02/17 06:58:46;;;;;;;15.77;12.97;;;11.90;1.00;;;;;;5007084;28;20514;-86
2024/02/17 07:01:15;;;;;;;14.40;12.90;;;11.90;1.00;;;;;;5024471;28;20453;-85
2024/02/17 07:03:48;;;;;;;12.90;11.53;;;11.90;1.00;;;;;;5021877;28;20457;-83
2024/02/17 07:06:19;;;;;;;17.50;14.07;;;11.80;1.00;;;;;;5023722;28;20997;-82
2024/02/17 07:08:48;;;;;;;14.57;13.07;;;11.80;1.00;;;;;;5020677;28;20962;-81
2024/02/17 07:11:16;;;;;;;14.03;11.47;;;11.80;1.00;;;;;;5004367;28;20484;-82
2024/02/17 07:13:47;;;;;;;17.33;14.33;;;11.70;1.00;;;;;;5022311;28;20449;-82
2024/02/17 07:16:16;;;;;;;14.27;12.80;;;11.70;1.00;;;;;;5024609;28;20488;-84
2024/02/17 07:18:45;;;;;;;15.33;13.73;;;11.70;1.00;;;;;;5020815;28;20460;-83
2024/02/17 07:21:14;;;;;;;14.10;12.67;;;11.70;1.00;;;;;;5023289;28;21014;-82
2024/02/17 07:23:42;;;;;;;13.63;12.27;;;11.70;99.90;;;;;;5019571;28;21433;-79
2024/02/17 07:26:10;;;;;;;13.53;12.13;;;11.70;99.90;;;;;;5014819;28;20472;-80
2024/02/17 07:28:38;;;;;;;13.60;11.60;;;11.70;99.90;;;;;;5013235;28;20464;-78
2024/02/17 07:31:06;;;;;;;13.33;12.03;;;11.80;99.90;;;;;;5012381;28;20486;-80
2024/02/17 07:33:34;;;;;;;14.93;13.47;;;11.90;99.90;;;;;;5012954;28;20998;-80
2024/02/17 07:36:05;;;;;;;15.87;13.27;;;11.90;99.90;;;;;;5014650;28;20539;-82
2024/02/17 07:38:36;;;;;;;15.17;13.37;;;11.90;99.90;;;;;;5016146;28;20461;-79
2024/02/17 07:41:04;;;;;;;17.30;13.33;;;11.90;99.90;;;;;;5017315;28;20452;-79
2024/02/17 07:43:33;;;;;;;17.03;13.37;;;11.90;99.90;;;;;;5016493;28;20465;-80
2024/02/17 07:46:01;;;;;;;14.60;13.10;;;11.90;99.90;;;;;;5018457;28;20596;-80
2024/02/17 07:48:30;;;;;;;16.00;14.30;;;12.10;99.90;;;;;;5017159;28;20449;-82
2024/02/17 07:50:59;;;;;;;15.20;13.60;;;12.10;99.90;;;;;;5018405;28;20480;-79
2024/02/17 07:53:28;;;;;;;16.37;13.80;;;12.20;99.90;;;;;;5017112;28;20457;-79
2024/02/17 07:55:57;;;;;;;15.57;14.00;;;12.20;90.60;;;;;;5020417;28;20459;-79
2024/02/17 07:58:25;;;;;;;16.03;14.30;;;12.20;99.90;;;;;;5017881;28;20547;-80
2024/02/17 08:00:53;;;;;;;16.60;14.57;;;12.20;99.90;;;;;;5014669;28;20465;-80
2024/02/17 08:03:22;;;;;;;16.73;14.37;;;12.20;99.90;;;;;;5016174;28;20453;-81
2024/02/17 08:05:50;;;;;;;18.40;14.27;;;12.20;99.90;;;;;;5021710;28;20466;-82
2024/02/17 08:08:19;;;;;;;16.10;14.07;;;12.20;99.90;;;;;;5018959;28;20471;-82
2024/02/17 08:10:49;;;;;;;16.70;14.70;;;12.30;99.90;;;;;;5018450;28;20481;-82
2024/02/17 08:13:18;;;;;;;16.40;13.00;;;12.40;1.00;;;;;;5015370;28;20544;-83
2024/02/17 08:15:47;;;;;;;15.00;13.50;;;12.60;99.90;;;;;;5018767;28;20959;-81
2024/02/17 08:18:15;;;;;;;16.97;13.07;;;12.80;99.90;;;;;;5022486;28;20500;-83
2024/02/17 08:20:44;;;;;;;14.53;12.83;;;13.00;99.90;;;;;;5026612;28;20515;-82
2024/02/17 08:23:12;;;;;;;13.90;12.13;;;13.30;38.90;;;;;;5021520;28;20530;-83
2024/02/17 08:25:41;;;;;;;15.90;12.53;;;13.50;1.00;;;;;;4998424;28;20462;-80
2024/02/17 08:28:10;;;;;;;14.40;13.00;;;13.80;1.00;;;;;;5021460;28;20457;-80
2024/02/17 08:30:38;;;;;;;13.17;11.73;;;14.00;99.90;;;;;;5017290;28;20642;-78
2024/02/17 08:33:07;;;;;;;14.33;13.03;;;14.30;99.90;;;;;;5020079;28;20453;-82
2024/02/17 08:35:37;;;;;;;15.23;13.03;;;14.60;99.90;;;;;;5019800;28;20473;-81
2024/02/17 08:38:05;;;;;;;13.57;12.30;;;14.90;99.90;;;;;;5021235;28;20454;-83
2024/02/17 08:40:34;;;;;;;13.03;11.83;;;14.80;17.80;;;;;;5002128;28;20474;-81
2024/02/17 08:43:02;;;;;;;14.13;12.83;;;14.60;7.90;;;;;;5020332;28;20461;-81
2024/02/17 08:45:31;;;;;;;13.07;11.60;;;14.40;1.00;;;;;;5017247;28;20708;-81
2024/02/17 08:48:00;;;;;;;12.10;10.97;;;14.30;1.00;;;;;;5013921;28;20472;-80
2024/02/17 08:50:28;;;;;;;10.90;9.80;;;14.20;1.00;;;;;;5016649;28;20567;-80
2024/02/17 08:52:56;;;;;;;12.83;11.63;;;14.30;1.00;;;;;;5016188;28;20489;-81
2024/02/17 08:55:24;;;;;;;13.37;10.30;;;14.70;1.00;;;;;;5021344;28;20461;-80
2024/02/17 08:57:52;;;;;;;12.13;10.93;;;14.60;1.00;;;;;;5021735;28;20449;-81
2024/02/17 09:00:23;;;;;;;13.45;12.15;;;14.70;1.00;;;;;;5019592;28;20458;-81
2024/02/17 09:02:52;;;;;;;12.43;10.83;;;14.50;1.00;;;;;;5015194;28;20286;-79
2024/02/17 09:05:21;;;;;;;10.70;9.80;;;14.50;1.00;;;;;;5018793;28;20744;-79
2024/02/17 09:07:50;;;;;;;11.00;10.07;;;14.40;1.00;;;;;;5017591;28;20457;-80
2024/02/17 09:10:18;;;;;;;9.73;8.83;;;14.30;1.00;;;;;;5018601;28;20566;-81
2024/02/17 09:12:46;;;;;;;10.33;9.43;;;14.10;1.00;;;;;;5022004;28;21501;-82
2024/02/17 09:15:14;;;;;;;15.10;9.90;;;14.70;1.00;;;;;;5030030;28;20480;-82
2024/02/17 09:17:43;;;;;;;10.00;9.10;;;15.80;1.00;;;;;;5024904;28;20464;-80
2024/02/17 09:20:13;;;;;;;10.37;9.47;;;16.90;1.00;;;;;;5019913;28;20487;-81
2024/02/17 09:22:41;;;;;;;9.60;8.70;;;17.60;99.90;;;;;;5021086;28;20453;-80
2024/02/17 09:25:09;;;;;;;9.23;8.33;;;18.00;99.90;;;;;;5022415;28;20481;-80
2024/02/17 09:27:37;;;;;;;11.30;10.20;;;18.50;99.90;;;;;;5020503;28;20528;-80
2024/02/17 09:30:07;;;;;;;8.67;8.07;;;18.70;99.90;;;;;;5023471;28;20230;-80
2024/02/17 09:32:36;;;;;;;8.00;7.40;;;19.40;99.90;;;;;;5022631;28;20476;-80
2024/02/17 09:35:05;;;;;;;9.43;8.37;;;19.80;99.90;;;;;;5014562;28;21083;-79
2024/02/17 09:37:34;;;;;;;9.13;8.33;;;19.40;99.90;;;;;;5013078;28;20484;-81
2024/02/17 09:40:03;;;;;;;8.50;7.80;;;20.20;99.90;;;;;;5021650;28;20466;-81
2024/02/17 09:42:31;;;;;;;8.30;7.07;;;21.00;99.90;;;;;;5021977;28;20455;-81
2024/02/17 09:45:00;;;;;;;7.20;6.70;;;21.70;99.90;;;;;;5020490;28;20456;-81
2024/02/17 09:47:31;;;;;;;8.30;7.50;;;22.20;99.90;;;;;;5018477;28;20515;-81
2024/02/17 09:50:02;;;;;;;8.13;7.43;;;22.80;99.90;;;;;;5018762;28;20520;-80
2024/02/17 09:52:31;;;;;;;6.80;6.30;;;23.20;99.90;;;;;;5021009;28;20517;-81
2024/02/17 09:55:01;;;;;;;7.30;6.03;;;23.60;99.90;;;;;;5017366;28;20460;-81
2024/02/17 09:57:29;;;;;;;7.43;6.47;;;24.00;99.90;;;;;;5017781;28;20447;-80
2024/02/17 10:00:14;;;;;;;6.60;6.00;;;23.90;99.90;;;;;;5016535;28;20550;-80
2024/02/17 10:02:43;;;;;;;8.23;5.20;;;23.90;99.90;;;;;;5018622;28;20457;-80
2024/02/17 10:05:12;;;;;;;6.57;5.97;;;24.00;99.90;;;;;;5019057;28;20457;-80
2024/02/17 10:07:48;;;;;;;7.00;6.40;;;23.30;99.90;;;;;;5017876;28;20499;-80
2024/02/17 10:10:19;;;;;;;7.80;7.13;;;22.70;99.90;;;;;;5019304;28;20470;-80
2024/02/17 10:12:49;;;;;;;7.47;6.77;;;22.90;99.90;;;;;;5019103;28;20470;-80
2024/02/17 10:15:20;;;;;;;7.57;6.87;;;23.30;99.90;;;;;;5014769;28;20442;-80
2024/02/17 10:17:49;;;;;;;6.57;6.07;;;23.50;99.90;;;;;;5015208;28;20545;-81
2024/02/17 10:20:17;;;;;;;6.30;5.80;;;23.80;99.90;;;;;;5020166;28;20473;-80
2024/02/17 10:22:46;;;;;;;6.23;5.77;;;24.40;99.90;;;;;;5016366;28;20580;-80
2024/02/17 10:25:15;;;;;;;8.20;5.20;;;25.00;99.90;;;;;;5019167;28;20824;-80
2024/02/17 10:27:46;;;;;;;6.10;5.70;;;25.50;99.90;;;;;;5019509;28;20453;-80
2024/02/17 10:30:16;;;;;;;7.47;6.77;;;25.60;99.90;;;;;;5021489;28;20513;-81
2024/02/17 10:32:45;;;;;;;6.00;5.47;;;26.10;99.90;;;;;;5016003;28;20480;-80
2024/02/17 10:35:16;;;;;;;6.17;5.57;;;26.80;99.90;;;;;;5016779;28;20992;-80
2024/02/17 10:37:48;;;;;;;6.00;5.50;;;27.30;99.90;;;;;;5003980;28;20829;-80
2024/02/17 10:40:17;;;;;;;5.23;4.83;;;27.80;99.90;;;;;;5015218;28;20473;-80
2024/02/17 10:42:49;;;;;;;5.03;4.47;;;26.40;99.90;;;;;;5016699;28;21123;-80
2024/02/17 10:45:18;;;;;;;4.67;4.37;;;27.60;99.90;;;;;;5018022;28;20462;-80
2024/02/17 10:47:47;;;;;;;3.80;3.40;;;28.70;99.90;;;;;;5012451;28;20808;-80
2024/02/17 10:50:19;;;;;;;3.57;3.27;;;27.50;99.90;;;;;;5017427;28;20582;-80
2024/02/17 10:52:51;;;;;;;4.43;4.13;;;25.00;99.90;;;;;;5012964;28;20472;-80
2024/02/17 10:55:24;;;;;;;3.97;3.77;;;24.10;99.90;;;;;;5016984;28;20455;-81
2024/02/17 10:58:04;;;;;;;8.03;4.43;;;24.80;99.90;;;;;;5016720;28;20459;-80
2024/02/17 11:00:33;;;;;;;3.57;3.00;;;24.00;99.90;;;;;;5016375;28;20468;-81
2024/02/17 11:03:04;;;;;;;3.50;3.30;;;25.80;99.90;;;;;;5016916;28;20437;-79
2024/02/17 11:05:35;;;;;;;3.97;3.20;;;29.10;99.90;;;;;;5016378;28;20466;-80
2024/02/17 11:08:05;;;;;;;3.83;3.53;;;29.20;99.90;;;;;;5016365;28;20451;-80
2024/02/17 11:10:33;;;;;;;3.63;3.33;;;25.60;99.90;;;;;;5015499;28;20581;-80
2024/02/17 11:13:03;;;;;;;4.53;3.80;;;23.20;99.90;;;;;;5019172;28;20571;-80
2024/02/17 11:15:32;;;;;;;3.60;3.40;;;22.60;99.90;;;;;;5020500;28;20485;-80
2024/02/17 11:18:05;;;;;;;4.20;3.80;;;21.90;99.90;;;;;;5021350;28;20481;-80
2024/02/17 11:20:33;;;;;;;3.40;3.20;;;26.20;99.90;;;;;;5012471;28;20581;-79
2024/02/17 11:23:02;;;;;;;3.57;3.33;;;29.10;99.90;;;;;;5020083;28;20455;-81
2024/02/17 11:25:33;;;;;;;2.83;2.73;;;31.20;99.90;;;;;;5024731;28;20449;-80
2024/02/17 11:28:19;;;;;;;3.47;3.17;;;32.00;99.90;;;;;;5020942;28;20491;-80
2024/02/17 11:30:49;;;;;;;3.30;3.10;;;32.80;99.90;;;;;;5022732;28;20862;-80
2024/02/17 11:33:21;;;;;;;3.70;2.97;;;31.90;99.90;;;;;;5024975;28;20631;-82
2024/02/17 11:35:51;;;;;;;3.20;3.00;;;30.90;99.90;;;;;;5003349;28;20679;-82
2024/02/17 11:38:25;;;;;;;3.83;2.67;;;27.30;99.90;;;;;;5020801;28;20543;-79
2024/02/17 11:40:55;;;;;;;3.10;2.90;;;24.60;99.90;;;;;;5022140;28;20863;-81
2024/02/17 11:43:26;;;;;;;3.87;2.60;;;22.80;99.90;;;;;;5040818;28;20450;-80
2024/02/17 11:45:57;;;;;;;2.23;2.13;;;21.70;99.90;;;;;;5020256;28;20658;-82
2024/02/17 11:48:27;;;;;;;2.47;2.37;;;20.70;99.90;;;;;;5020213;28;20456;-83
2024/02/17 11:53:46;;;;;;;2.60;2.40;;;19.60;99.90;;;;;;5022698;28;20483;-81
2024/02/17 11:56:15;;;;;;;3.03;2.40;;;19.20;99.90;;;;;;5005214;28;20458;-80
2024/02/17 11:58:45;;;;;;;2.10;2.00;;;18.80;99.70;;;;;;5019209;28;20461;-79
2024/02/17 12:01:14;;;;;;;2.83;2.27;;;18.60;98.10;;;;;;5019720;28;20553;-81
2024/02/17 12:03:44;;;;;;;3.10;1.90;;;18.50;98.20;;;;;;5020894;28;20445;-79
2024/02/17 12:06:13;;;;;;;3.17;2.50;;;18.40;96.00;;;;;;5003759;28;20982;-81
2024/02/17 12:08:42;;;;;;;2.57;2.40;;;18.20;94.80;;;;;;5021845;28;20453;-80
2024/02/17 12:11:10;;;;;;;2.13;2.03;;;18.00;94.20;;;;;;5020428;28;20572;-80
2024/02/17 12:13:38;;;;;;;2.83;2.63;;;17.90;93.80;;;;;;5019291;28;20487;-79
2024/02/17 12:16:09;;;;;;;2.13;1.93;;;17.70;92.80;;;;;;5018263;28;20472;-80
2024/02/17 12:18:40;;;;;;;2.30;2.20;;;17.60;92.90;;;;;;5017678;28;20599;-79
2024/02/17 12:21:10;;;;;;;2.27;2.17;;;17.50;92.30;;;;;;5021602;28;20489;-79
2024/02/17 12:23:42;;;;;;;2.73;2.53;;;17.40;91.80;;;;;;5016681;28;20514;-79
2024/02/17 12:26:11;;;;;;;3.00;2.40;;;17.30;92.10;;;;;;5020677;28;20459;-80
2024/02/17 12:28:55;;;;;;;2.60;2.40;;;17.20;91.20;;;;;;5016028;28;20456;-82
2024/02/17 12:31:25;;;;;;;2.70;2.50;;;17.30;93.00;;;;;;5014979;28;20474;-80
2024/02/17 12:33:54;;;;;;;3.00;2.63;;;17.50;94.00;;;;;;5017850;28;20477;-81
2024/02/17 12:36:23;;;;;;;2.70;2.47;;;17.70;95.20;;;;;;5017762;28;20449;-82
2024/02/17 12:38:57;;;;;;;2.37;2.27;;;17.90;99.90;;;;;;5036181;28;21076;-82
2024/02/17 12:41:26;;;;;;;2.67;2.27;;;18.10;99.80;;;;;;5022561;28;20448;-81
2024/02/17 12:43:55;;;;;;;2.13;2.03;;;18.10;99.90;;;;;;5021179;28;21107;-81
2024/02/17 12:46:28;;;;;;;2.93;2.10;;;18.30;99.90;;;;;;5017202;28;20457;-81
2024/02/17 12:48:57;;;;;;;4.03;2.40;;;18.30;99.90;;;;;;5017468;28;20469;-80
2024/02/17 12:51:28;;;;;;;1.90;1.80;;;18.40;99.90;;;;;;5019415;28;20465;-80
2024/02/17 12:53:59;;;;;;;1.87;1.77;;;18.30;99.90;;;;;;5017436;28;20466;-82
2024/02/17 12:56:27;;;;;;;2.30;2.20;;;18.40;99.90;;;;;;5019952;28;20514;-79
2024/02/17 12:58:57;;;;;;;2.60;2.17;;;18.20;99.90;;;;;;5034836;28;20536;-82